sensor_id;sensor_type;location;lat;lon;timestamp;temperature;humidity
1329;DHT22;658;48.820;9.354;2022-08-19T00:04:03;25.90;56.60
1329;DHT22;658;48.820;9.354;2022-08-19T00:08:04;25.90;56.70
1329;DHT22;658;48.820;9.354;2022-08-19T00:12:05;25.90;56.60
1329;DHT22;658;48.820;9.354;2022-08-19T00:16:06;25.90;56.80
1329;DHT22;658;48.820;9.354;2022-08-19T00:20:09;25.90;56.90
1329;DHT22;658;48.820;9.354;2022-08-19T00:24:12;25.90;56.90
1329;DHT22;658;48.820;9.354;2022-08-19T00:28:13;25.90;56.70
1329;DHT22;658;48.820;9.354;2022-08-19T00:32:14;25.90;56.80
1329;DHT22;658;48.820;9.354;2022-08-19T00:36:15;25.80;56.80
1329;DHT22;658;48.820;9.354;2022-08-19T00:40:16;25.90;56.90
1329;DHT22;658;48.820;9.354;2022-08-19T00:44:26;25.80;56.80
1329;DHT22;658;48.820;9.354;2022-08-19T00:48:27;25.90;56.70
1329;DHT22;658;48.820;9.354;2022-08-19T00:52:38;25.80;56.70
1329;DHT22;658;48.820;9.354;2022-08-19T00:56:39;25.70;56.70
1329;DHT22;658;48.820;9.354;2022-08-19T01:00:41;25.70;56.80
1329;DHT22;658;48.820;9.354;2022-08-19T01:04:41;25.70;56.80
1329;DHT22;658;48.820;9.354;2022-08-19T01:08:42;25.70;56.80
1329;DHT22;658;48.820;9.354;2022-08-19T01:12:43;25.60;56.80
1329;DHT22;658;48.820;9.354;2022-08-19T01:16:45;25.60;56.80
1329;DHT22;658;48.820;9.354;2022-08-19T01:20:47;25.60;56.90
1329;DHT22;658;48.820;9.354;2022-08-19T01:24:48;25.60;56.90
1329;DHT22;658;48.820;9.354;2022-08-19T01:28:51;25.60;56.90
1329;DHT22;658;48.820;9.354;2022-08-19T01:32:52;25.60;57.00
1329;DHT22;658;48.820;9.354;2022-08-19T01:36:53;25.60;57.00
1329;DHT22;658;48.820;9.354;2022-08-19T01:40:54;25.60;57.00
1329;DHT22;658;48.820;9.354;2022-08-19T01:44:55;25.60;57.00
1329;DHT22;658;48.820;9.354;2022-08-19T01:48:56;25.60;57.00
1329;DHT22;658;48.820;9.354;2022-08-19T01:52:57;25.60;57.60
1329;DHT22;658;48.820;9.354;2022-08-19T01:57:05;25.60;57.00
1329;DHT22;658;48.820;9.354;2022-08-19T02:01:07;25.50;57.10
1329;DHT22;658;48.820;9.354;2022-08-19T02:05:08;25.60;57.00
1329;DHT22;658;48.820;9.354;2022-08-19T02:09:08;25.50;57.00
1329;DHT22;658;48.820;9.354;2022-08-19T02:13:11;25.50;57.00
1329;DHT22;658;48.820;9.354;2022-08-19T02:17:11;25.50;57.10
1329;DHT22;658;48.820;9.354;2022-08-19T02:21:12;25.40;57.20
1329;DHT22;658;48.820;9.354;2022-08-19T02:25:14;25.40;57.20
1329;DHT22;658;48.820;9.354;2022-08-19T02:29:15;25.40;57.20
1329;DHT22;658;48.820;9.354;2022-08-19T02:33:16;25.50;57.30
1329;DHT22;658;48.820;9.354;2022-08-19T02:37:16;25.40;57.30
1329;DHT22;658;48.820;9.354;2022-08-19T02:41:36;25.40;57.40
1329;DHT22;658;48.820;9.354;2022-08-19T02:45:38;25.40;57.40
1329;DHT22;658;48.820;9.354;2022-08-19T02:49:41;25.40;57.50
1329;DHT22;658;48.820;9.354;2022-08-19T02:53:42;25.40;57.60
1329;DHT22;658;48.820;9.354;2022-08-19T02:57:42;25.30;57.50
1329;DHT22;658;48.820;9.354;2022-08-19T03:01:43;25.40;57.60
1329;DHT22;658;48.820;9.354;2022-08-19T03:05:44;25.40;57.50
1329;DHT22;658;48.820;9.354;2022-08-19T03:09:45;25.30;57.60
1329;DHT22;658;48.820;9.354;2022-08-19T03:13:46;25.30;57.60
1329;DHT22;658;48.820;9.354;2022-08-19T03:17:46;25.30;57.60
1329;DHT22;658;48.820;9.354;2022-08-19T03:21:48;25.30;57.70
1329;DHT22;658;48.820;9.354;2022-08-19T03:25:51;25.30;57.70
1329;DHT22;658;48.820;9.354;2022-08-19T03:29:52;25.30;57.70
1329;DHT22;658;48.820;9.354;2022-08-19T03:33:52;25.30;57.90
1329;DHT22;658;48.820;9.354;2022-08-19T03:37:53;25.30;57.90
1329;DHT22;658;48.820;9.354;2022-08-19T03:41:54;25.30;58.00
1329;DHT22;658;48.820;9.354;2022-08-19T03:46:05;25.30;57.90
1329;DHT22;658;48.820;9.354;2022-08-19T03:50:06;25.30;57.90
1329;DHT22;658;48.820;9.354;2022-08-19T03:54:09;25.30;57.90
1329;DHT22;658;48.820;9.354;2022-08-19T03:58:09;25.30;58.30
1329;DHT22;658;48.820;9.354;2022-08-19T04:02:12;25.30;57.80
1329;DHT22;658;48.820;9.354;2022-08-19T04:06:16;25.30;58.00
1329;DHT22;658;48.820;9.354;2022-08-19T04:10:17;25.30;58.20
1329;DHT22;658;48.820;9.354;2022-08-19T04:14:20;25.20;58.30
1329;DHT22;658;48.820;9.354;2022-08-19T04:18:22;25.20;58.50
1329;DHT22;658;48.820;9.354;2022-08-19T04:22:22;25.20;58.60
1329;DHT22;658;48.820;9.354;2022-08-19T04:26:26;25.20;58.70
1329;DHT22;658;48.820;9.354;2022-08-19T04:30:27;25.20;58.70
1329;DHT22;658;48.820;9.354;2022-08-19T04:34:28;25.10;58.70
1329;DHT22;658;48.820;9.354;2022-08-19T04:38:29;25.10;58.70
1329;DHT22;658;48.820;9.354;2022-08-19T04:42:30;25.10;58.70
1329;DHT22;658;48.820;9.354;2022-08-19T04:46:40;25.00;58.70
1329;DHT22;658;48.820;9.354;2022-08-19T04:50:43;25.00;58.90
1329;DHT22;658;48.820;9.354;2022-08-19T04:54:44;25.00;58.90
1329;DHT22;658;48.820;9.354;2022-08-19T04:58:44;25.00;59.00
1329;DHT22;658;48.820;9.354;2022-08-19T05:02:45;25.00;59.00
1329;DHT22;658;48.820;9.354;2022-08-19T05:06:47;24.90;59.00
1329;DHT22;658;48.820;9.354;2022-08-19T05:10:50;24.90;59.10
1329;DHT22;658;48.820;9.354;2022-08-19T05:14:50;24.80;59.10
1329;DHT22;658;48.820;9.354;2022-08-19T05:18:52;24.90;59.20
1329;DHT22;658;48.820;9.354;2022-08-19T05:23:11;24.80;59.10
1329;DHT22;658;48.820;9.354;2022-08-19T05:27:17;24.90;59.10
1329;DHT22;658;48.820;9.354;2022-08-19T05:31:18;24.90;59.10
1329;DHT22;658;48.820;9.354;2022-08-19T05:35:18;24.90;59.10
1329;DHT22;658;48.820;9.354;2022-08-19T05:39:20;24.90;59.10
1329;DHT22;658;48.820;9.354;2022-08-19T05:43:20;24.90;59.10
1329;DHT22;658;48.820;9.354;2022-08-19T05:47:21;24.90;59.00
1329;DHT22;658;48.820;9.354;2022-08-19T05:51:23;24.90;59.10
1329;DHT22;658;48.820;9.354;2022-08-19T05:55:25;24.90;59.10
1329;DHT22;658;48.820;9.354;2022-08-19T05:59:25;24.90;59.10
1329;DHT22;658;48.820;9.354;2022-08-19T06:03:26;24.90;59.10
1329;DHT22;658;48.820;9.354;2022-08-19T06:07:27;24.90;59.20
1329;DHT22;658;48.820;9.354;2022-08-19T06:11:38;24.80;59.20
1329;DHT22;658;48.820;9.354;2022-08-19T06:15:39;24.80;59.10
1329;DHT22;658;48.820;9.354;2022-08-19T06:19:44;24.80;59.30
1329;DHT22;658;48.820;9.354;2022-08-19T06:23:45;24.70;59.30
1329;DHT22;658;48.820;9.354;2022-08-19T06:27:47;24.60;59.50
1329;DHT22;658;48.820;9.354;2022-08-19T06:31:50;24.60;59.60
1329;DHT22;658;48.820;9.354;2022-08-19T06:35:51;24.60;59.50
1329;DHT22;658;48.820;9.354;2022-08-19T06:39:51;24.60;59.50
1329;DHT22;658;48.820;9.354;2022-08-19T06:43:53;24.60;59.60
1329;DHT22;658;48.820;9.354;2022-08-19T06:47:54;24.60;59.60
1329;DHT22;658;48.820;9.354;2022-08-19T06:51:56;24.60;59.70
1329;DHT22;658;48.820;9.354;2022-08-19T06:55:58;24.50;59.80
1329;DHT22;658;48.820;9.354;2022-08-19T07:00:00;24.60;59.80
1329;DHT22;658;48.820;9.354;2022-08-19T07:04:01;24.60;59.80
1329;DHT22;658;48.820;9.354;2022-08-19T07:08:02;24.50;59.90
1329;DHT22;658;48.820;9.354;2022-08-19T07:12:06;24.60;60.00
1329;DHT22;658;48.820;9.354;2022-08-19T07:16:08;24.50;60.40
1329;DHT22;658;48.820;9.354;2022-08-19T07:20:10;24.50;60.80
1329;DHT22;658;48.820;9.354;2022-08-19T07:24:11;24.50;61.30
1329;DHT22;658;48.820;9.354;2022-08-19T07:28:12;24.40;61.80
1329;DHT22;658;48.820;9.354;2022-08-19T07:32:13;24.50;62.10
1329;DHT22;658;48.820;9.354;2022-08-19T07:36:15;24.50;62.70
1329;DHT22;658;48.820;9.354;2022-08-19T07:40:17;24.50;63.10
1329;DHT22;658;48.820;9.354;2022-08-19T07:44:19;24.50;63.10
1329;DHT22;658;48.820;9.354;2022-08-19T07:48:20;24.50;63.40
1329;DHT22;658;48.820;9.354;2022-08-19T07:52:25;24.50;63.90
1329;DHT22;658;48.820;9.354;2022-08-19T07:56:26;24.50;64.40
1329;DHT22;658;48.820;9.354;2022-08-19T08:00:26;24.50;64.50
1329;DHT22;658;48.820;9.354;2022-08-19T08:04:28;24.60;64.80
1329;DHT22;658;48.820;9.354;2022-08-19T08:08:48;24.60;64.90
1329;DHT22;658;48.820;9.354;2022-08-19T08:13:07;24.60;65.10
1329;DHT22;658;48.820;9.354;2022-08-19T08:17:09;24.60;65.00
1329;DHT22;658;48.820;9.354;2022-08-19T08:21:10;24.50;65.10
1329;DHT22;658;48.820;9.354;2022-08-19T08:25:16;24.50;65.10
1329;DHT22;658;48.820;9.354;2022-08-19T08:29:17;24.50;64.80
1329;DHT22;658;48.820;9.354;2022-08-19T08:33:21;24.40;64.80
1329;DHT22;658;48.820;9.354;2022-08-19T08:37:22;24.40;64.80
1329;DHT22;658;48.820;9.354;2022-08-19T08:50:05;24.30;64.90
1329;DHT22;658;48.820;9.354;2022-08-19T08:54:14;24.30;65.00
1329;DHT22;658;48.820;9.354;2022-08-19T08:58:32;24.40;65.00
1329;DHT22;658;48.820;9.354;2022-08-19T09:02:43;24.40;65.00
1329;DHT22;658;48.820;9.354;2022-08-19T09:07:00;24.40;64.90
1329;DHT22;658;48.820;9.354;2022-08-19T09:11:08;24.40;65.10
1329;DHT22;658;48.820;9.354;2022-08-19T09:15:12;24.30;65.00
1329;DHT22;658;48.820;9.354;2022-08-19T09:19:13;24.40;65.40
1329;DHT22;658;48.820;9.354;2022-08-19T09:23:15;24.40;65.10
1329;DHT22;658;48.820;9.354;2022-08-19T09:27:16;24.50;65.30
1329;DHT22;658;48.820;9.354;2022-08-19T09:31:20;24.50;65.50
1329;DHT22;658;48.820;9.354;2022-08-19T09:35:24;24.50;65.00
1329;DHT22;658;48.820;9.354;2022-08-19T09:39:25;24.50;65.40
1329;DHT22;658;48.820;9.354;2022-08-19T09:43:25;24.30;67.00
1329;DHT22;658;48.820;9.354;2022-08-19T09:47:28;24.10;68.20
1329;DHT22;658;48.820;9.354;2022-08-19T09:51:28;24.20;68.30
1329;DHT22;658;48.820;9.354;2022-08-19T09:55:29;24.20;68.50
1329;DHT22;658;48.820;9.354;2022-08-19T09:59:30;24.20;68.80
1329;DHT22;658;48.820;9.354;2022-08-19T10:03:33;24.20;69.30
1329;DHT22;658;48.820;9.354;2022-08-19T10:07:34;24.10;70.10
1329;DHT22;658;48.820;9.354;2022-08-19T10:11:35;24.10;70.20
1329;DHT22;658;48.820;9.354;2022-08-19T10:15:37;24.00;70.50
1329;DHT22;658;48.820;9.354;2022-08-19T10:19:40;24.10;71.00
1329;DHT22;658;48.820;9.354;2022-08-19T10:23:44;24.10;71.10
1329;DHT22;658;48.820;9.354;2022-08-19T10:27:45;24.10;71.20
1329;DHT22;658;48.820;9.354;2022-08-19T10:31:46;24.20;71.80
1329;DHT22;658;48.820;9.354;2022-08-19T10:35:47;24.20;71.20
1329;DHT22;658;48.820;9.354;2022-08-19T10:39:49;24.20;71.10
1329;DHT22;658;48.820;9.354;2022-08-19T10:43:54;24.20;71.70
1329;DHT22;658;48.820;9.354;2022-08-19T10:47:55;24.20;72.30
1329;DHT22;658;48.820;9.354;2022-08-19T10:51:56;24.30;72.70
1329;DHT22;658;48.820;9.354;2022-08-19T10:56:16;24.30;73.00
1329;DHT22;658;48.820;9.354;2022-08-19T11:00:35;24.40;72.60
1329;DHT22;658;48.820;9.354;2022-08-19T11:04:37;24.50;72.40
1329;DHT22;658;48.820;9.354;2022-08-19T11:08:38;24.50;72.60
1329;DHT22;658;48.820;9.354;2022-08-19T11:12:39;24.50;73.00
1329;DHT22;658;48.820;9.354;2022-08-19T11:16:42;24.50;74.60
1329;DHT22;658;48.820;9.354;2022-08-19T11:20:42;24.50;75.00
1329;DHT22;658;48.820;9.354;2022-08-19T11:24:43;24.60;74.70
1329;DHT22;658;48.820;9.354;2022-08-19T11:28:44;24.60;75.00
1329;DHT22;658;48.820;9.354;2022-08-19T11:32:44;24.60;74.80
1329;DHT22;658;48.820;9.354;2022-08-19T11:36:46;24.70;74.20
1329;DHT22;658;48.820;9.354;2022-08-19T11:40:58;24.80;73.40
1329;DHT22;658;48.820;9.354;2022-08-19T11:44:58;24.80;73.70
1329;DHT22;658;48.820;9.354;2022-08-19T11:48:59;24.80;73.40
1329;DHT22;658;48.820;9.354;2022-08-19T11:53:00;24.80;73.60
1329;DHT22;658;48.820;9.354;2022-08-19T11:57:03;24.80;74.60
1329;DHT22;658;48.820;9.354;2022-08-19T12:01:08;24.80;74.10
1329;DHT22;658;48.820;9.354;2022-08-19T12:05:11;24.80;74.30
1329;DHT22;658;48.820;9.354;2022-08-19T12:09:12;24.90;74.10
1329;DHT22;658;48.820;9.354;2022-08-19T12:13:13;25.00;73.20
1329;DHT22;658;48.820;9.354;2022-08-19T12:17:15;25.00;72.90
1329;DHT22;658;48.820;9.354;2022-08-19T12:21:19;25.10;72.60
1329;DHT22;658;48.820;9.354;2022-08-19T12:25:21;25.20;72.10
1329;DHT22;658;48.820;9.354;2022-08-19T12:29:22;25.20;72.10
1329;DHT22;658;48.820;9.354;2022-08-19T12:33:28;25.30;71.90
1329;DHT22;658;48.820;9.354;2022-08-19T12:37:29;25.30;71.70
1329;DHT22;658;48.820;9.354;2022-08-19T12:41:30;25.30;71.40
1329;DHT22;658;48.820;9.354;2022-08-19T12:45:30;25.30;71.30
1329;DHT22;658;48.820;9.354;2022-08-19T12:49:31;25.30;71.20
1329;DHT22;658;48.820;9.354;2022-08-19T12:53:34;25.30;71.30
1329;DHT22;658;48.820;9.354;2022-08-19T12:57:37;25.30;71.30
1329;DHT22;658;48.820;9.354;2022-08-19T13:01:38;25.30;71.30
1329;DHT22;658;48.820;9.354;2022-08-19T13:05:39;25.30;71.50
1329;DHT22;658;48.820;9.354;2022-08-19T13:09:40;25.30;71.30
1329;DHT22;658;48.820;9.354;2022-08-19T13:13:44;25.30;71.60
1329;DHT22;658;48.820;9.354;2022-08-19T13:17:44;25.30;71.70
1329;DHT22;658;48.820;9.354;2022-08-19T13:21:49;25.40;71.80
1329;DHT22;658;48.820;9.354;2022-08-19T13:25:58;25.30;72.30
1329;DHT22;658;48.820;9.354;2022-08-19T13:30:00;25.30;72.60
1329;DHT22;658;48.820;9.354;2022-08-19T13:34:33;25.30;72.70
1329;DHT22;658;48.820;9.354;2022-08-19T13:38:35;25.30;72.30
1329;DHT22;658;48.820;9.354;2022-08-19T13:42:36;25.40;72.00
1329;DHT22;658;48.820;9.354;2022-08-19T13:46:37;25.40;72.00
1329;DHT22;658;48.820;9.354;2022-08-19T13:50:43;25.40;72.20
1329;DHT22;658;48.820;9.354;2022-08-19T13:54:44;25.40;72.20
1329;DHT22;658;48.820;9.354;2022-08-19T13:58:45;25.40;72.30
1329;DHT22;658;48.820;9.354;2022-08-19T14:02:49;25.30;72.10
1329;DHT22;658;48.820;9.354;2022-08-19T14:06:51;25.40;71.80
1329;DHT22;658;48.820;9.354;2022-08-19T14:10:52;25.40;71.70
1329;DHT22;658;48.820;9.354;2022-08-19T14:14:52;25.50;71.80
1329;DHT22;658;48.820;9.354;2022-08-19T14:18:53;25.50;71.60
1329;DHT22;658;48.820;9.354;2022-08-19T14:22:54;25.50;71.60
1329;DHT22;658;48.820;9.354;2022-08-19T14:26:55;25.50;71.50
1329;DHT22;658;48.820;9.354;2022-08-19T14:30:57;25.60;71.90
1329;DHT22;658;48.820;9.354;2022-08-19T14:34:58;25.60;71.80
1329;DHT22;658;48.820;9.354;2022-08-19T14:38:58;25.60;71.70
1329;DHT22;658;48.820;9.354;2022-08-19T14:43:03;25.60;71.70
1329;DHT22;658;48.820;9.354;2022-08-19T14:47:04;25.60;71.70
1329;DHT22;658;48.820;9.354;2022-08-19T14:51:07;25.60;71.70
1329;DHT22;658;48.820;9.354;2022-08-19T14:55:08;25.60;71.50
1329;DHT22;658;48.820;9.354;2022-08-19T14:59:09;25.70;71.20
1329;DHT22;658;48.820;9.354;2022-08-19T15:03:09;25.70;71.20
1329;DHT22;658;48.820;9.354;2022-08-19T15:07:13;25.70;71.40
1329;DHT22;658;48.820;9.354;2022-08-19T15:11:16;25.70;71.40
1329;DHT22;658;48.820;9.354;2022-08-19T15:15:17;25.70;71.00
1329;DHT22;658;48.820;9.354;2022-08-19T15:19:18;25.80;70.80
1329;DHT22;658;48.820;9.354;2022-08-19T15:23:19;25.80;70.70
1329;DHT22;658;48.820;9.354;2022-08-19T15:27:21;25.80;70.30
1329;DHT22;658;48.820;9.354;2022-08-19T15:31:22;25.80;69.90
1329;DHT22;658;48.820;9.354;2022-08-19T15:35:23;25.90;69.70
1329;DHT22;658;48.820;9.354;2022-08-19T15:39:24;25.90;69.60
1329;DHT22;658;48.820;9.354;2022-08-19T15:43:25;25.90;69.70
1329;DHT22;658;48.820;9.354;2022-08-19T15:47:28;25.80;69.50
1329;DHT22;658;48.820;9.354;2022-08-19T15:51:31;25.80;69.50
1329;DHT22;658;48.820;9.354;2022-08-19T15:55:35;25.70;69.10
1329;DHT22;658;48.820;9.354;2022-08-19T15:59:37;25.70;68.80
1329;DHT22;658;48.820;9.354;2022-08-19T16:03:58;25.70;68.60
1329;DHT22;658;48.820;9.354;2022-08-19T16:08:17;25.80;68.80
1329;DHT22;658;48.820;9.354;2022-08-19T16:12:18;25.80;68.60
1329;DHT22;658;48.820;9.354;2022-08-19T16:16:33;25.80;68.40
1329;DHT22;658;48.820;9.354;2022-08-19T16:20:34;25.80;68.20
1329;DHT22;658;48.820;9.354;2022-08-19T16:24:35;25.80;68.00
1329;DHT22;658;48.820;9.354;2022-08-19T16:28:36;25.90;68.00
1329;DHT22;658;48.820;9.354;2022-08-19T16:32:42;25.90;67.70
1329;DHT22;658;48.820;9.354;2022-08-19T16:36:43;25.90;67.80
1329;DHT22;658;48.820;9.354;2022-08-19T16:40:43;25.90;67.80
1329;DHT22;658;48.820;9.354;2022-08-19T16:44:44;25.90;67.60
1329;DHT22;658;48.820;9.354;2022-08-19T16:48:45;25.90;67.70
1329;DHT22;658;48.820;9.354;2022-08-19T16:52:46;25.90;67.50
1329;DHT22;658;48.820;9.354;2022-08-19T16:56:47;25.90;67.10
1329;DHT22;658;48.820;9.354;2022-08-19T17:00:49;25.90;67.20
1329;DHT22;658;48.820;9.354;2022-08-19T17:04:50;25.90;67.00
1329;DHT22;658;48.820;9.354;2022-08-19T17:08:53;25.90;67.60
1329;DHT22;658;48.820;9.354;2022-08-19T17:12:54;25.90;67.70
1329;DHT22;658;48.820;9.354;2022-08-19T17:16:55;26.00;67.80
1329;DHT22;658;48.820;9.354;2022-08-19T17:20:56;25.90;68.00
1329;DHT22;658;48.820;9.354;2022-08-19T17:24:56;25.90;68.00
1329;DHT22;658;48.820;9.354;2022-08-19T17:28:57;25.90;68.00
1329;DHT22;658;48.820;9.354;2022-08-19T17:32:58;25.90;68.10
1329;DHT22;658;48.820;9.354;2022-08-19T17:36:59;25.90;68.20
1329;DHT22;658;48.820;9.354;2022-08-19T17:40:59;25.90;68.20
1329;DHT22;658;48.820;9.354;2022-08-19T17:45:05;25.90;68.20
1329;DHT22;658;48.820;9.354;2022-08-19T17:49:07;25.90;68.10
1329;DHT22;658;48.820;9.354;2022-08-19T17:53:07;25.90;68.00
1329;DHT22;658;48.820;9.354;2022-08-19T17:57:08;25.80;67.90
1329;DHT22;658;48.820;9.354;2022-08-19T18:01:10;25.80;67.80
1329;DHT22;658;48.820;9.354;2022-08-19T18:05:11;25.80;68.00
1329;DHT22;658;48.820;9.354;2022-08-19T18:09:12;25.80;68.20
1329;DHT22;658;48.820;9.354;2022-08-19T18:13:13;25.80;68.10
1329;DHT22;658;48.820;9.354;2022-08-19T18:17:15;25.80;68.10
1329;DHT22;658;48.820;9.354;2022-08-19T18:21:18;25.70;68.20
1329;DHT22;658;48.820;9.354;2022-08-19T18:25:21;25.70;68.10
1329;DHT22;658;48.820;9.354;2022-08-19T18:29:23;25.70;67.90
1329;DHT22;658;48.820;9.354;2022-08-19T18:33:24;25.70;67.80
1329;DHT22;658;48.820;9.354;2022-08-19T18:37:25;25.70;67.70
1329;DHT22;658;48.820;9.354;2022-08-19T18:41:26;25.70;67.30
1329;DHT22;658;48.820;9.354;2022-08-19T18:45:45;25.70;66.70
1329;DHT22;658;48.820;9.354;2022-08-19T18:50:05;25.60;66.60
1329;DHT22;658;48.820;9.354;2022-08-19T18:54:08;25.60;66.50
1329;DHT22;658;48.820;9.354;2022-08-19T18:58:09;25.60;66.90
1329;DHT22;658;48.820;9.354;2022-08-19T19:02:10;25.60;66.20
1329;DHT22;658;48.820;9.354;2022-08-19T19:06:16;25.60;66.10
1329;DHT22;658;48.820;9.354;2022-08-19T19:10:21;25.60;66.10
1329;DHT22;658;48.820;9.354;2022-08-19T19:14:28;25.60;65.60
1329;DHT22;658;48.820;9.354;2022-08-19T19:18:31;25.60;66.10
1329;DHT22;658;48.820;9.354;2022-08-19T19:22:33;25.60;66.10
1329;DHT22;658;48.820;9.354;2022-08-19T19:26:34;25.60;66.20
1329;DHT22;658;48.820;9.354;2022-08-19T19:30:36;25.60;66.20
1329;DHT22;658;48.820;9.354;2022-08-19T19:34:37;25.60;66.30
1329;DHT22;658;48.820;9.354;2022-08-19T19:38:38;25.60;66.30
1329;DHT22;658;48.820;9.354;2022-08-19T19:42:42;25.50;66.20
1329;DHT22;658;48.820;9.354;2022-08-19T19:46:43;25.50;66.10
1329;DHT22;658;48.820;9.354;2022-08-19T19:50:45;25.50;66.20
1329;DHT22;658;48.820;9.354;2022-08-19T19:54:45;25.50;66.30
1329;DHT22;658;48.820;9.354;2022-08-19T19:58:46;25.50;66.30
1329;DHT22;658;48.820;9.354;2022-08-19T20:02:50;25.50;66.30
1329;DHT22;658;48.820;9.354;2022-08-19T20:06:52;25.50;66.40
1329;DHT22;658;48.820;9.354;2022-08-19T20:10:53;25.40;66.40
1329;DHT22;658;48.820;9.354;2022-08-19T20:14:56;25.50;66.60
1329;DHT22;658;48.820;9.354;2022-08-19T20:18:59;25.40;66.50
1329;DHT22;658;48.820;9.354;2022-08-19T20:23:00;25.50;66.60
1329;DHT22;658;48.820;9.354;2022-08-19T20:27:02;25.40;66.50
1329;DHT22;658;48.820;9.354;2022-08-19T20:31:03;25.40;66.50
1329;DHT22;658;48.820;9.354;2022-08-19T20:35:04;25.40;66.50
1329;DHT22;658;48.820;9.354;2022-08-19T20:39:06;25.40;66.70
1329;DHT22;658;48.820;9.354;2022-08-19T20:43:09;25.40;66.60
1329;DHT22;658;48.820;9.354;2022-08-19T20:47:10;25.40;66.60
1329;DHT22;658;48.820;9.354;2022-08-19T20:51:11;25.40;66.70
1329;DHT22;658;48.820;9.354;2022-08-19T20:55:12;25.40;66.80
1329;DHT22;658;48.820;9.354;2022-08-19T20:59:13;25.40;66.80
1329;DHT22;658;48.820;9.354;2022-08-19T21:03:20;25.40;66.60
1329;DHT22;658;48.820;9.354;2022-08-19T21:07:21;25.40;66.70
1329;DHT22;658;48.820;9.354;2022-08-19T21:11:22;25.40;66.50
1329;DHT22;658;48.820;9.354;2022-08-19T21:15:22;25.40;66.40
1329;DHT22;658;48.820;9.354;2022-08-19T21:19:24;25.30;66.40
1329;DHT22;658;48.820;9.354;2022-08-19T21:23:26;25.30;67.20
1329;DHT22;658;48.820;9.354;2022-08-19T21:27:28;25.40;66.20
1329;DHT22;658;48.820;9.354;2022-08-19T21:31:29;25.40;66.30
1329;DHT22;658;48.820;9.354;2022-08-19T21:35:30;25.30;66.30
1329;DHT22;658;48.820;9.354;2022-08-19T21:39:31;25.30;66.40
1329;DHT22;658;48.820;9.354;2022-08-19T21:43:32;25.30;66.40
1329;DHT22;658;48.820;9.354;2022-08-19T21:47:33;25.30;66.30
1329;DHT22;658;48.820;9.354;2022-08-19T21:51:33;25.30;66.80
1329;DHT22;658;48.820;9.354;2022-08-19T21:55:34;25.30;66.50
1329;DHT22;658;48.820;9.354;2022-08-19T21:59:35;25.30;66.60
1329;DHT22;658;48.820;9.354;2022-08-19T22:03:37;25.30;66.60
1329;DHT22;658;48.820;9.354;2022-08-19T22:07:38;25.30;66.60
1329;DHT22;658;48.820;9.354;2022-08-19T22:11:39;25.30;66.60
1329;DHT22;658;48.820;9.354;2022-08-19T22:15:40;25.30;66.60
1329;DHT22;658;48.820;9.354;2022-08-19T22:19:41;25.30;66.70
1329;DHT22;658;48.820;9.354;2022-08-19T22:23:42;25.30;66.80
1329;DHT22;658;48.820;9.354;2022-08-19T22:27:46;25.30;66.70
1329;DHT22;658;48.820;9.354;2022-08-19T22:31:47;25.20;66.70
1329;DHT22;658;48.820;9.354;2022-08-19T22:35:48;25.20;66.90
1329;DHT22;658;48.820;9.354;2022-08-19T22:39:50;25.20;66.90
1329;DHT22;658;48.820;9.354;2022-08-19T22:43:51;25.20;66.90
1329;DHT22;658;48.820;9.354;2022-08-19T22:47:52;25.20;66.80
1329;DHT22;658;48.820;9.354;2022-08-19T22:51:52;25.20;66.80
1329;DHT22;658;48.820;9.354;2022-08-19T22:56:12;25.20;66.90
1329;DHT22;658;48.820;9.354;2022-08-19T23:00:14;25.10;66.90
1329;DHT22;658;48.820;9.354;2022-08-19T23:04:15;25.10;66.90
1329;DHT22;658;48.820;9.354;2022-08-19T23:08:16;25.10;66.90
1329;DHT22;658;48.820;9.354;2022-08-19T23:12:26;25.10;66.90
1329;DHT22;658;48.820;9.354;2022-08-19T23:16:27;25.10;66.80
1329;DHT22;658;48.820;9.354;2022-08-19T23:20:32;25.10;66.90
1329;DHT22;658;48.820;9.354;2022-08-19T23:24:33;25.10;66.80
1329;DHT22;658;48.820;9.354;2022-08-19T23:28:33;25.10;66.80
1329;DHT22;658;48.820;9.354;2022-08-19T23:32:54;25.10;66.70
1329;DHT22;658;48.820;9.354;2022-08-19T23:36:56;25.10;66.70
1329;DHT22;658;48.820;9.354;2022-08-19T23:40:59;25.10;66.60
1329;DHT22;658;48.820;9.354;2022-08-19T23:45:01;25.10;66.70
1329;DHT22;658;48.820;9.354;2022-08-19T23:49:03;25.00;66.60
1329;DHT22;658;48.820;9.354;2022-08-19T23:53:04;25.10;66.50
1329;DHT22;658;48.820;9.354;2022-08-19T23:57:05;25.10;66.40
